createdAt,value
2018-06-24T00:00:25.300Z,0.00
2018-06-24T00:01:25.338Z,0.00
2018-06-24T00:02:25.375Z,0.00
2018-06-24T00:03:25.411Z,0.00
2018-06-24T00:04:25.456Z,0.00
2018-06-24T00:05:25.488Z,0.00
2018-06-24T00:06:25.527Z,0.00
2018-06-24T00:07:25.563Z,0.00
2018-06-24T00:08:25.601Z,0.00
2018-06-24T00:09:25.646Z,0.00
2018-06-24T00:10:25.785Z,0.00
2018-06-24T00:11:25.714Z,0.00
2018-06-24T00:12:25.751Z,0.00
2018-06-24T00:13:25.788Z,0.00
2018-06-24T00:14:25.830Z,0.00
2018-06-24T00:15:25.897Z,0.00
2018-06-24T00:16:25.901Z,0.00
2018-06-24T00:17:25.940Z,0.00
2018-06-24T00:18:25.984Z,0.00
2018-06-24T00:19:26.013Z,0.00
2018-06-24T00:20:26.051Z,0.00
2018-06-24T00:21:26.089Z,0.00
2018-06-24T00:22:26.128Z,0.00
2018-06-24T00:23:26.172Z,0.00
2018-06-24T00:24:26.203Z,0.00
2018-06-24T00:25:26.251Z,0.00
2018-06-24T00:26:26.278Z,0.00
2018-06-24T00:27:26.322Z,0.00
2018-06-24T00:28:26.352Z,0.00
2018-06-24T00:29:26.396Z,0.00
2018-06-24T00:30:26.427Z,0.00
2018-06-24T00:31:26.464Z,0.00
2018-06-24T00:32:26.502Z,0.00
2018-06-24T00:33:26.538Z,0.00
2018-06-24T00:34:26.576Z,0.00
2018-06-24T00:35:26.620Z,0.00
2018-06-24T00:36:26.653Z,0.00
2018-06-24T00:37:26.689Z,0.00
2018-06-24T00:38:26.734Z,0.00
2018-06-24T00:39:26.764Z,0.00
2018-06-24T00:40:26.801Z,0.00
2018-06-24T00:41:26.839Z,0.00
2018-06-24T00:42:26.878Z,0.00
2018-06-24T00:43:26.912Z,0.00
2018-06-24T00:44:26.952Z,0.00
2018-06-24T00:45:27.036Z,0.00
2018-06-24T00:46:27.026Z,0.00
2018-06-24T00:47:27.065Z,0.00
2018-06-24T00:48:27.100Z,0.00
2018-06-24T00:49:27.138Z,0.00
2018-06-24T00:50:27.176Z,0.00
2018-06-24T00:51:27.213Z,0.00
2018-06-24T00:52:27.250Z,0.00
2018-06-24T00:53:27.287Z,0.00
2018-06-24T00:54:27.325Z,0.00
2018-06-24T00:55:27.362Z,0.00
2018-06-24T00:56:27.400Z,0.00
2018-06-24T00:57:27.444Z,0.00
2018-06-24T00:58:27.475Z,0.00
2018-06-24T00:59:27.520Z,0.00
2018-06-24T01:00:27.548Z,0.00
2018-06-24T01:01:27.587Z,0.00
2018-06-24T01:02:27.623Z,0.00
2018-06-24T01:03:27.660Z,0.00
2018-06-24T01:04:27.697Z,0.00
2018-06-24T01:05:27.734Z,0.00
2018-06-24T01:06:27.772Z,0.00
2018-06-24T01:07:27.811Z,0.00
2018-06-24T01:08:27.846Z,0.00
2018-06-24T01:09:27.883Z,0.00
2018-06-24T01:10:27.925Z,0.00
2018-06-24T01:11:27.957Z,0.00
2018-06-24T01:12:27.995Z,0.00
2018-06-24T01:13:28.034Z,0.00
2018-06-24T01:14:28.072Z,0.00
2018-06-24T01:15:28.108Z,0.00
2018-06-24T01:16:28.155Z,0.00
2018-06-24T01:17:28.182Z,0.00
2018-06-24T01:18:28.220Z,0.00
2018-06-24T01:19:28.258Z,0.00
2018-06-24T01:20:28.294Z,0.00
2018-06-24T01:21:28.332Z,0.00
2018-06-24T01:22:28.376Z,0.00
2018-06-24T01:23:28.410Z,0.00
2018-06-24T01:24:28.443Z,0.00
2018-06-24T01:25:28.481Z,0.00
2018-06-24T01:26:28.520Z,0.00
2018-06-24T01:27:28.564Z,0.00
2018-06-24T01:28:28.593Z,0.00
2018-06-24T01:29:28.639Z,0.00
2018-06-24T01:30:28.676Z,0.00
2018-06-24T01:31:28.705Z,0.00
2018-06-24T01:32:28.743Z,0.00
2018-06-24T01:33:28.779Z,0.00
2018-06-24T01:34:28.817Z,0.00
2018-06-24T01:35:28.857Z,0.00
2018-06-24T01:36:28.901Z,0.00
2018-06-24T01:37:28.927Z,0.00
2018-06-24T01:38:28.968Z,0.00
2018-06-24T01:39:29.002Z,0.00
2018-06-24T01:40:29.040Z,0.00
2018-06-24T01:41:29.080Z,0.00
2018-06-24T01:42:29.123Z,0.00
2018-06-24T01:43:29.152Z,0.00
2018-06-24T01:44:29.193Z,0.00
2018-06-24T01:45:29.227Z,0.00
2018-06-24T01:46:29.267Z,0.00
2018-06-24T01:47:29.361Z,0.00
2018-06-24T01:48:29.338Z,0.00
2018-06-24T01:49:29.377Z,0.00
2018-06-24T01:50:29.414Z,0.00
2018-06-24T01:51:29.450Z,0.00
2018-06-24T01:52:29.490Z,0.00
2018-06-24T01:53:29.525Z,0.00
2018-06-24T01:54:29.563Z,0.00
2018-06-24T01:55:29.598Z,0.00
2018-06-24T01:56:29.639Z,0.00
2018-06-24T01:57:29.674Z,0.00
2018-06-24T01:58:29.713Z,0.00
2018-06-24T01:59:29.748Z,0.00
2018-06-24T02:00:29.786Z,0.00
2018-06-24T02:01:29.821Z,0.00
2018-06-24T02:02:29.860Z,0.00
2018-06-24T02:03:29.897Z,0.00
2018-06-24T02:04:29.935Z,0.00
2018-06-24T02:05:29.972Z,0.00
2018-06-24T02:06:30.008Z,0.00
2018-06-24T02:07:30.047Z,0.00
2018-06-24T02:08:30.082Z,0.00
2018-06-24T02:09:30.117Z,0.00
2018-06-24T02:10:30.158Z,0.00
2018-06-24T02:11:30.192Z,0.00
2018-06-24T02:12:30.229Z,0.00
2018-06-24T02:13:30.267Z,0.00
2018-06-24T02:14:30.303Z,0.00
2018-06-24T02:15:30.340Z,0.00
2018-06-24T02:16:30.377Z,0.00
2018-06-24T02:17:30.419Z,4.00
2018-06-24T02:18:30.461Z,4.00
2018-06-24T02:19:30.489Z,4.00
2018-06-24T02:20:30.525Z,4.00
2018-06-24T02:21:30.560Z,0.00
2018-06-24T02:22:30.598Z,4.00
2018-06-24T02:23:30.634Z,4.00
2018-06-24T02:24:30.673Z,4.00
2018-06-24T02:25:30.762Z,4.00
2018-06-24T02:26:30.747Z,4.00
2018-06-24T02:27:30.782Z,4.00
2018-06-24T02:28:30.821Z,8.00
2018-06-24T02:29:30.863Z,4.00
2018-06-24T02:30:30.897Z,8.00
2018-06-24T02:31:30.930Z,8.00
2018-06-24T02:32:30.968Z,12.00
2018-06-24T02:33:31.003Z,12.00
2018-06-24T02:34:31.044Z,12.00
2018-06-24T02:35:31.077Z,12.00
2018-06-24T02:36:31.118Z,16.00
2018-06-24T02:37:31.154Z,16.00
2018-06-24T02:38:31.188Z,20.00
2018-06-24T02:39:31.232Z,24.00
2018-06-24T02:40:31.258Z,24.00
2018-06-24T02:41:31.296Z,28.00
2018-06-24T02:42:31.331Z,32.00
2018-06-24T02:43:31.375Z,36.00
2018-06-24T02:44:31.416Z,40.00
2018-06-24T02:45:31.441Z,44.00
2018-06-24T02:46:31.476Z,48.00
2018-06-24T02:47:31.513Z,56.00
2018-06-24T02:48:31.551Z,60.00
2018-06-24T02:49:31.586Z,68.00
2018-06-24T02:50:31.622Z,76.00
2018-06-24T02:51:31.660Z,84.00
2018-06-24T02:52:31.694Z,92.00
2018-06-24T02:53:31.786Z,104.00
2018-06-24T02:54:31.768Z,112.00
2018-06-24T02:55:31.803Z,124.00
2018-06-24T02:56:31.840Z,136.00
2018-06-24T02:57:31.886Z,144.00
2018-06-24T02:58:31.914Z,160.00
2018-06-24T02:59:31.949Z,172.00
2018-06-24T03:00:31.984Z,188.00
2018-06-24T03:01:32.022Z,200.00
2018-06-24T03:02:32.058Z,216.00
2018-06-24T03:03:32.094Z,232.00
2018-06-24T03:04:32.133Z,248.00
2018-06-24T03:05:32.175Z,264.00
2018-06-24T03:06:32.212Z,284.00
2018-06-24T03:07:32.240Z,300.00
2018-06-24T03:08:32.281Z,320.00
2018-06-24T03:09:32.310Z,336.00
2018-06-24T03:10:32.345Z,356.00
2018-06-24T03:11:32.381Z,380.00
2018-06-24T03:12:32.425Z,404.00
2018-06-24T03:13:32.454Z,428.00
2018-06-24T03:14:32.489Z,456.00
2018-06-24T03:15:32.523Z,488.00
2018-06-24T03:16:32.562Z,516.00
2018-06-24T03:17:32.597Z,552.00
2018-06-24T03:18:32.639Z,592.00
2018-06-24T03:19:32.668Z,632.00
2018-06-24T03:20:32.702Z,672.00
2018-06-24T03:21:32.739Z,716.00
2018-06-24T03:22:32.776Z,760.00
2018-06-24T03:23:32.809Z,816.00
2018-06-24T03:24:32.848Z,876.00
2018-06-24T03:25:32.883Z,928.00
2018-06-24T03:26:32.917Z,948.00
2018-06-24T03:27:32.952Z,964.00
2018-06-24T03:28:32.990Z,1004.00
2018-06-24T03:29:33.034Z,1060.00
2018-06-24T03:30:33.061Z,1116.00
2018-06-24T03:31:33.096Z,1176.00
2018-06-24T03:32:33.136Z,1228.00
2018-06-24T03:33:33.168Z,1276.00
2018-06-24T03:34:33.205Z,1332.00
2018-06-24T03:35:33.240Z,1400.00
2018-06-24T03:36:33.276Z,1472.00
2018-06-24T03:37:33.311Z,1544.00
2018-06-24T03:38:33.348Z,1636.00
2018-06-24T03:39:33.390Z,1736.00
2018-06-24T03:40:33.420Z,1836.00
2018-06-24T03:41:33.455Z,1936.00
2018-06-24T03:42:33.491Z,2020.00
2018-06-24T03:43:33.526Z,2088.00
2018-06-24T03:44:33.562Z,2132.00
2018-06-24T03:45:33.599Z,2160.00
2018-06-24T03:46:33.635Z,2188.00
2018-06-24T03:47:33.668Z,2228.00
2018-06-24T03:48:33.705Z,2288.00
2018-06-24T03:49:33.740Z,2388.00
2018-06-24T03:50:33.777Z,2520.00
2018-06-24T03:51:33.810Z,2660.00
2018-06-24T03:52:33.847Z,2820.00
2018-06-24T03:53:33.890Z,2992.00
2018-06-24T03:54:33.919Z,3120.00
2018-06-24T03:55:33.953Z,3088.00
2018-06-24T03:56:34.001Z,2976.00
2018-06-24T03:57:34.025Z,3000.00
2018-06-24T03:58:34.064Z,3076.00
2018-06-24T03:59:34.097Z,3172.00
2018-06-24T04:00:34.133Z,3244.00
2018-06-24T04:01:34.171Z,3288.00
2018-06-24T04:02:34.205Z,3436.00
2018-06-24T04:03:34.240Z,3680.00
2018-06-24T04:04:34.276Z,3996.00
2018-06-24T04:05:34.312Z,4392.00
2018-06-24T04:06:34.349Z,4660.00
2018-06-24T04:07:34.384Z,4680.00
2018-06-24T04:08:34.421Z,4572.00
2018-06-24T04:09:34.463Z,4484.00
2018-06-24T04:10:34.492Z,4552.00
2018-06-24T04:11:34.535Z,4068.00
2018-06-24T04:12:34.562Z,3812.00
2018-06-24T04:13:34.600Z,3564.00
2018-06-24T04:14:34.635Z,3384.00
2018-06-24T04:15:34.671Z,3468.00
2018-06-24T04:16:34.709Z,3564.00
2018-06-24T04:17:34.743Z,3604.00
2018-06-24T04:18:34.779Z,3696.00
2018-06-24T04:19:34.813Z,3880.00
2018-06-24T04:20:34.849Z,4160.00
2018-06-24T04:21:34.885Z,4484.00
2018-06-24T04:22:34.921Z,4620.00
2018-06-24T04:23:34.958Z,4736.00
2018-06-24T04:24:34.993Z,4904.00
2018-06-24T04:25:35.036Z,5028.00
2018-06-24T04:26:35.065Z,5112.00
2018-06-24T04:27:35.101Z,5216.00
2018-06-24T04:28:35.138Z,5340.00
2018-06-24T04:29:35.176Z,5452.00
2018-06-24T04:30:35.210Z,5572.00
2018-06-24T04:31:35.245Z,5664.00
2018-06-24T04:32:35.282Z,5756.00
2018-06-24T04:33:35.319Z,5944.00
2018-06-24T04:34:35.355Z,6160.00
2018-06-24T04:35:35.390Z,6308.00
2018-06-24T04:36:35.427Z,6376.00
2018-06-24T04:37:35.462Z,6376.00
2018-06-24T04:38:35.501Z,6216.00
2018-06-24T04:39:35.533Z,6088.00
2018-06-24T04:40:35.572Z,5956.00
2018-06-24T04:41:35.612Z,5824.00
2018-06-24T04:42:35.645Z,5860.00
2018-06-24T04:43:35.681Z,5968.00
2018-06-24T04:44:35.718Z,6200.00
2018-06-24T04:45:35.759Z,6424.00
2018-06-24T04:46:35.790Z,6568.00
2018-06-24T04:47:35.830Z,6660.00
2018-06-24T04:48:35.863Z,6808.00
2018-06-24T04:49:35.900Z,7188.00
2018-06-24T04:50:35.946Z,7548.00
2018-06-24T04:51:35.997Z,7904.00
2018-06-24T04:52:36.011Z,8188.00
2018-06-24T04:53:36.060Z,8524.00
2018-06-24T04:54:36.082Z,8792.00
2018-06-24T04:55:36.122Z,9180.00
2018-06-24T04:56:36.154Z,9608.00
2018-06-24T04:57:36.191Z,9892.00
2018-06-24T04:58:36.229Z,9984.00
2018-06-24T04:59:36.264Z,10024.00
2018-06-24T05:00:36.306Z,9844.00
2018-06-24T05:01:36.338Z,9660.00
2018-06-24T05:02:36.382Z,9508.00
2018-06-24T05:03:36.412Z,9572.00
2018-06-24T05:04:36.450Z,9756.00
2018-06-24T05:05:36.486Z,9860.00
2018-06-24T05:06:36.551Z,9980.00
2018-06-24T05:07:36.561Z,10072.00
2018-06-24T05:08:36.597Z,10112.00
2018-06-24T05:09:36.635Z,10236.00
2018-06-24T05:10:36.672Z,10620.00
2018-06-24T05:11:36.709Z,10884.00
2018-06-24T05:12:36.746Z,10840.00
2018-06-24T05:13:36.784Z,10504.00
2018-06-24T05:14:36.821Z,10532.00
2018-06-24T05:15:36.859Z,10960.00
2018-06-24T05:16:36.896Z,10600.00
2018-06-24T05:17:36.934Z,10456.00
2018-06-24T05:18:36.981Z,10292.00
2018-06-24T05:19:37.013Z,10340.00
2018-06-24T05:20:37.047Z,10180.00
2018-06-24T05:21:37.087Z,10092.00
2018-06-24T05:22:37.121Z,10172.00
2018-06-24T05:23:37.158Z,10320.00
2018-06-24T05:24:37.197Z,10388.00
2018-06-24T05:25:37.235Z,10436.00
2018-06-24T05:26:37.271Z,10388.00
2018-06-24T05:27:37.366Z,10400.00
2018-06-24T05:28:37.347Z,10296.00
2018-06-24T05:29:37.385Z,10136.00
2018-06-24T05:30:37.423Z,10336.00
2018-06-24T05:31:37.466Z,10816.00
2018-06-24T05:32:37.497Z,11288.00
2018-06-24T05:33:37.536Z,11452.00
2018-06-24T05:34:37.574Z,11264.00
2018-06-24T05:35:37.613Z,10776.00
2018-06-24T05:36:37.649Z,10216.00
2018-06-24T05:37:37.692Z,9948.00
2018-06-24T05:38:37.727Z,10060.00
2018-06-24T05:39:37.767Z,10736.00
2018-06-24T05:40:37.802Z,11496.00
2018-06-24T05:41:37.841Z,11856.00
2018-06-24T05:42:37.880Z,12352.00
2018-06-24T05:43:37.918Z,12696.00
2018-06-24T05:44:37.964Z,12836.00
2018-06-24T05:45:37.994Z,12728.00
2018-06-24T05:46:38.034Z,12384.00
2018-06-24T05:47:38.071Z,11904.00
2018-06-24T05:48:38.109Z,11980.00
2018-06-24T05:49:38.147Z,12356.00
2018-06-24T05:50:38.185Z,12704.00
2018-06-24T05:51:38.225Z,13124.00
2018-06-24T05:52:38.270Z,13368.00
2018-06-24T05:53:38.301Z,12828.00
2018-06-24T05:54:38.341Z,11932.00
2018-06-24T05:55:38.376Z,12272.00
2018-06-24T05:56:38.422Z,12804.00
2018-06-24T05:57:38.455Z,12712.00
2018-06-24T05:58:38.496Z,12436.00
2018-06-24T05:59:38.530Z,12524.00
2018-06-24T06:00:38.574Z,12908.00
2018-06-24T06:01:38.608Z,13496.00
2018-06-24T06:02:38.647Z,14552.00
2018-06-24T06:03:38.689Z,15680.00
2018-06-24T06:04:38.740Z,16360.00
2018-06-24T06:05:38.763Z,17184.00
2018-06-24T06:06:38.806Z,17344.00
2018-06-24T06:07:38.848Z,16800.00
2018-06-24T06:08:38.880Z,16448.00
2018-06-24T06:09:38.920Z,15780.00
2018-06-24T06:10:38.957Z,15868.00
2018-06-24T06:11:39.000Z,15472.00
2018-06-24T06:12:39.034Z,14676.00
2018-06-24T06:13:39.075Z,14172.00
2018-06-24T06:14:39.111Z,13576.00
2018-06-24T06:15:39.152Z,13172.00
2018-06-24T06:16:39.197Z,13152.00
2018-06-24T06:17:39.230Z,13180.00
2018-06-24T06:18:39.270Z,13448.00
2018-06-24T06:19:39.318Z,14688.00
2018-06-24T06:20:39.349Z,16124.00
2018-06-24T06:21:39.444Z,17408.00
2018-06-24T06:22:39.428Z,18720.00
2018-06-24T06:23:39.464Z,19392.00
2018-06-24T06:24:39.503Z,19872.00
2018-06-24T06:25:39.543Z,20032.00
2018-06-24T06:26:39.581Z,19712.00
2018-06-24T06:27:39.621Z,18976.00
2018-06-24T06:28:39.660Z,18816.00
2018-06-24T06:29:39.700Z,18464.00
2018-06-24T06:30:39.738Z,18336.00
2018-06-24T06:31:39.777Z,17696.00
2018-06-24T06:32:39.817Z,17152.00
2018-06-24T06:33:39.859Z,16736.00
2018-06-24T06:34:39.899Z,17344.00
2018-06-24T06:35:39.938Z,18080.00
2018-06-24T06:36:39.977Z,18080.00
2018-06-24T06:37:40.019Z,17440.00
2018-06-24T06:38:40.056Z,16544.00
2018-06-24T06:39:40.098Z,14620.00
2018-06-24T06:40:40.139Z,12956.00
2018-06-24T06:41:40.176Z,12192.00
2018-06-24T06:42:40.222Z,11972.00
2018-06-24T06:43:40.257Z,12792.00
2018-06-24T06:44:40.310Z,13856.00
2018-06-24T06:45:40.473Z,14408.00
2018-06-24T06:46:40.378Z,14900.00
2018-06-24T06:47:40.420Z,15544.00
2018-06-24T06:48:40.455Z,16112.00
2018-06-24T06:49:40.503Z,16832.00
2018-06-24T06:50:40.539Z,17504.00
2018-06-24T06:51:40.575Z,18784.00
2018-06-24T06:52:40.617Z,20480.00
2018-06-24T06:53:40.666Z,22112.00
2018-06-24T06:54:40.697Z,22880.00
2018-06-24T06:55:40.737Z,23136.00
2018-06-24T06:56:40.777Z,23008.00
2018-06-24T06:57:40.818Z,22528.00
2018-06-24T06:58:40.856Z,22080.00
2018-06-24T06:59:40.896Z,21824.00
2018-06-24T07:00:40.943Z,21088.00
2018-06-24T07:01:40.977Z,20544.00
2018-06-24T07:02:41.027Z,19776.00
2018-06-24T07:03:41.058Z,19488.00
2018-06-24T07:04:41.099Z,20000.00
2018-06-24T07:05:41.190Z,20480.00
2018-06-24T07:06:41.179Z,21280.00
2018-06-24T07:07:41.219Z,22112.00
2018-06-24T07:08:41.260Z,23136.00
2018-06-24T07:09:41.302Z,22336.00
2018-06-24T07:10:41.345Z,20736.00
2018-06-24T07:11:41.382Z,20928.00
2018-06-24T07:12:41.423Z,22144.00
2018-06-24T07:13:41.464Z,22592.00
2018-06-24T07:14:41.505Z,22112.00
2018-06-24T07:15:41.546Z,20864.00
2018-06-24T07:16:41.585Z,19840.00
2018-06-24T07:17:41.626Z,18848.00
2018-06-24T07:18:41.669Z,17824.00
2018-06-24T07:19:41.709Z,16768.00
2018-06-24T07:20:41.748Z,15780.00
2018-06-24T07:21:41.790Z,14900.00
2018-06-24T07:22:41.834Z,14340.00
2018-06-24T07:23:41.877Z,14112.00
2018-06-24T07:24:41.914Z,14060.00
2018-06-24T07:25:41.957Z,14608.00
2018-06-24T07:26:41.995Z,14776.00
2018-06-24T07:27:42.038Z,14780.00
2018-06-24T07:28:42.082Z,15180.00
2018-06-24T07:29:42.114Z,15480.00
2018-06-24T07:30:42.157Z,15724.00
2018-06-24T07:31:42.194Z,16028.00
2018-06-24T07:32:42.238Z,15912.00
2018-06-24T07:33:42.383Z,15908.00
2018-06-24T07:34:42.322Z,16140.00
2018-06-24T07:35:42.356Z,16800.00
2018-06-24T07:36:42.406Z,17792.00
2018-06-24T07:37:42.438Z,18944.00
2018-06-24T07:38:42.480Z,19840.00
2018-06-24T07:39:42.519Z,20000.00
2018-06-24T07:40:42.570Z,20032.00
2018-06-24T07:41:42.599Z,20448.00
2018-06-24T07:42:42.641Z,20608.00
2018-06-24T07:43:42.680Z,19872.00
2018-06-24T07:44:42.720Z,19744.00
2018-06-24T07:45:42.768Z,19936.00
2018-06-24T07:46:42.800Z,19936.00
2018-06-24T07:47:42.840Z,20064.00
2018-06-24T07:48:42.890Z,20320.00
2018-06-24T07:49:42.920Z,20128.00
2018-06-24T07:50:42.963Z,20096.00
2018-06-24T07:51:43.005Z,20192.00
2018-06-24T07:52:43.042Z,19808.00
2018-06-24T07:53:43.083Z,19648.00
2018-06-24T07:54:43.125Z,19744.00
2018-06-24T07:55:43.164Z,20480.00
2018-06-24T07:56:43.205Z,21184.00
2018-06-24T07:57:43.246Z,21856.00
2018-06-24T07:58:43.285Z,22848.00
2018-06-24T07:59:43.332Z,24128.00
2018-06-24T08:00:43.368Z,24544.00
2018-06-24T08:01:43.407Z,24224.00
2018-06-24T08:02:43.447Z,24704.00
2018-06-24T08:03:43.489Z,24704.00
2018-06-24T08:04:43.530Z,23840.00
2018-06-24T08:05:43.569Z,22496.00
2018-06-24T08:06:43.613Z,22272.00
2018-06-24T08:07:43.651Z,21152.00
2018-06-24T08:08:43.692Z,20000.00
2018-06-24T08:09:43.734Z,19616.00
2018-06-24T08:10:43.776Z,19520.00
2018-06-24T08:11:43.823Z,20640.00
2018-06-24T08:12:43.854Z,22208.00
2018-06-24T08:13:43.896Z,22528.00
2018-06-24T08:14:43.936Z,22720.00
2018-06-24T08:15:43.978Z,22272.00
2018-06-24T08:16:44.019Z,22336.00
2018-06-24T08:17:44.059Z,21856.00
2018-06-24T08:18:44.101Z,21184.00
2018-06-24T08:19:44.150Z,20704.00
2018-06-24T08:20:44.197Z,19328.00
2018-06-24T08:21:44.223Z,18656.00
2018-06-24T08:22:44.320Z,19200.00
2018-06-24T08:23:44.305Z,18976.00
2018-06-24T08:24:44.348Z,19424.00
2018-06-24T08:25:44.391Z,19296.00
2018-06-24T08:26:44.429Z,18688.00
2018-06-24T08:27:44.475Z,18720.00
2018-06-24T08:28:44.508Z,18912.00
2018-06-24T08:29:44.552Z,18592.00
2018-06-24T08:30:44.594Z,17504.00
2018-06-24T08:31:44.700Z,16320.00
2018-06-24T08:32:44.682Z,16100.00
2018-06-24T08:33:44.712Z,16284.00
2018-06-24T08:34:44.752Z,16800.00
2018-06-24T08:35:44.792Z,17344.00
2018-06-24T08:36:44.833Z,18176.00
2018-06-24T08:37:44.883Z,18592.00
2018-06-24T08:38:44.916Z,18432.00
2018-06-24T08:39:44.958Z,18368.00
2018-06-24T08:40:44.996Z,17600.00
2018-06-24T08:41:45.048Z,17248.00
2018-06-24T08:42:45.080Z,17856.00
2018-06-24T08:43:45.119Z,19264.00
2018-06-24T08:44:45.164Z,20096.00
2018-06-24T08:45:45.201Z,19104.00
2018-06-24T08:46:45.241Z,17600.00
2018-06-24T08:47:45.291Z,16184.00
2018-06-24T08:48:45.323Z,15996.00
2018-06-24T08:49:45.363Z,16896.00
2018-06-24T08:50:45.406Z,17568.00
2018-06-24T08:51:45.446Z,17600.00
2018-06-24T08:52:45.485Z,16864.00
2018-06-24T08:53:45.524Z,16672.00
2018-06-24T08:54:45.567Z,17344.00
2018-06-24T08:55:45.608Z,18048.00
2018-06-24T08:56:45.655Z,18144.00
2018-06-24T08:57:45.707Z,17312.00
2018-06-24T08:58:45.729Z,17344.00
2018-06-24T08:59:45.770Z,18560.00
2018-06-24T09:00:45.819Z,19840.00
2018-06-24T09:01:45.848Z,20896.00
2018-06-24T09:02:45.893Z,21280.00
2018-06-24T09:03:45.928Z,21216.00
2018-06-24T09:04:45.969Z,21184.00
2018-06-24T09:05:46.014Z,21120.00
2018-06-24T09:06:46.052Z,20384.00
2018-06-24T09:07:46.090Z,19424.00
2018-06-24T09:08:46.130Z,18624.00
2018-06-24T09:09:46.175Z,17856.00
2018-06-24T09:10:46.227Z,17440.00
2018-06-24T09:11:46.255Z,17536.00
2018-06-24T09:12:46.294Z,17664.00
2018-06-24T09:13:46.334Z,19264.00
2018-06-24T09:14:46.375Z,20192.00
2018-06-24T09:15:46.418Z,19456.00
2018-06-24T09:16:46.456Z,18848.00
2018-06-24T09:17:46.501Z,20128.00
2018-06-24T09:18:46.550Z,21216.00
2018-06-24T09:19:46.579Z,21376.00
2018-06-24T09:20:46.617Z,20352.00
2018-06-24T09:21:46.658Z,18240.00
2018-06-24T09:22:46.701Z,16032.00
2018-06-24T09:23:46.740Z,16288.00
2018-06-24T09:24:46.790Z,18304.00
2018-06-24T09:25:46.820Z,19232.00
2018-06-24T09:26:46.862Z,20224.00
2018-06-24T09:27:46.900Z,21728.00
2018-06-24T09:28:46.940Z,23776.00
2018-06-24T09:29:46.981Z,24416.00
2018-06-24T09:30:47.046Z,23936.00
2018-06-24T09:31:47.064Z,23232.00
2018-06-24T09:32:47.104Z,21888.00
2018-06-24T09:33:47.145Z,21376.00
2018-06-24T09:34:47.205Z,20800.00
2018-06-24T09:35:47.237Z,20896.00
2018-06-24T09:36:47.267Z,21952.00
2018-06-24T09:37:47.306Z,23200.00
2018-06-24T09:38:47.346Z,24672.00
2018-06-24T09:39:47.392Z,25824.00
2018-06-24T09:40:47.428Z,26080.00
2018-06-24T09:41:47.478Z,26208.00
2018-06-24T09:42:47.512Z,26272.00
2018-06-24T09:43:47.553Z,26048.00
2018-06-24T09:44:47.591Z,24384.00
2018-06-24T09:45:47.635Z,21440.00
2018-06-24T09:46:47.677Z,18496.00
2018-06-24T09:47:47.721Z,20480.00
2018-06-24T09:48:47.757Z,24032.00
2018-06-24T09:49:47.798Z,24832.00
2018-06-24T09:50:47.841Z,23776.00
2018-06-24T09:51:47.880Z,21312.00
2018-06-24T09:52:47.943Z,17472.00
2018-06-24T09:53:47.965Z,16320.00
2018-06-24T09:54:48.005Z,16512.00
2018-06-24T09:55:48.046Z,17728.00
2018-06-24T09:56:48.087Z,18496.00
2018-06-24T09:57:48.128Z,20704.00
2018-06-24T09:58:48.170Z,23808.00
2018-06-24T09:59:48.211Z,24768.00
2018-06-24T10:00:48.275Z,24736.00
2018-06-24T10:01:48.294Z,25632.00
2018-06-24T10:02:48.335Z,25504.00
2018-06-24T10:03:48.375Z,24704.00
2018-06-24T10:04:48.417Z,24992.00
2018-06-24T10:05:48.463Z,25440.00
2018-06-24T10:06:48.499Z,25952.00
2018-06-24T10:07:48.544Z,26656.00
2018-06-24T10:08:48.583Z,27584.00
2018-06-24T10:09:48.624Z,28448.00
2018-06-24T10:10:48.672Z,29216.00
2018-06-24T10:11:48.709Z,29696.00
2018-06-24T10:12:48.761Z,29120.00
2018-06-24T10:13:48.806Z,27584.00
2018-06-24T10:14:48.830Z,25280.00
2018-06-24T10:15:48.870Z,24256.00
2018-06-24T10:16:48.925Z,24096.00
2018-06-24T10:17:48.957Z,23392.00
2018-06-24T10:18:49.000Z,22496.00
2018-06-24T10:19:49.044Z,22496.00
2018-06-24T10:20:49.087Z,23104.00
2018-06-24T10:21:49.138Z,23840.00
2018-06-24T10:22:49.170Z,23584.00
2018-06-24T10:23:49.224Z,22688.00
2018-06-24T10:24:49.256Z,22560.00
2018-06-24T10:25:49.294Z,23648.00
2018-06-24T10:26:49.341Z,23744.00
2018-06-24T10:27:49.379Z,22624.00
2018-06-24T10:28:49.423Z,22560.00
2018-06-24T10:29:49.459Z,22880.00
2018-06-24T10:30:49.569Z,22816.00
2018-06-24T10:31:49.546Z,22400.00
2018-06-24T10:32:49.584Z,22496.00
2018-06-24T10:33:49.628Z,22656.00
2018-06-24T10:34:49.682Z,22752.00
2018-06-24T10:35:49.711Z,23072.00
2018-06-24T10:36:49.752Z,22208.00
2018-06-24T10:37:49.796Z,22880.00
2018-06-24T10:38:49.973Z,24000.00
2018-06-24T10:39:49.934Z,25952.00
2018-06-24T10:40:49.928Z,26752.00
2018-06-24T10:41:50.021Z,27296.00
2018-06-24T10:42:49.997Z,27616.00
2018-06-24T10:43:50.041Z,26816.00
2018-06-24T10:44:50.081Z,26240.00
2018-06-24T10:45:50.137Z,25760.00
2018-06-24T10:46:50.174Z,24864.00
2018-06-24T10:47:50.206Z,23584.00
2018-06-24T10:48:50.251Z,23680.00
2018-06-24T10:49:50.294Z,24256.00
2018-06-24T10:50:50.347Z,23680.00
2018-06-24T10:51:50.375Z,22080.00
2018-06-24T10:52:50.435Z,20992.00
2018-06-24T10:53:50.458Z,20096.00
2018-06-24T10:54:50.500Z,21184.00
2018-06-24T10:55:50.544Z,22784.00
2018-06-24T10:56:50.584Z,24960.00
2018-06-24T10:57:50.624Z,25696.00
2018-06-24T10:58:50.668Z,26688.00
2018-06-24T10:59:50.712Z,28352.00
2018-06-24T11:00:50.753Z,28480.00
2018-06-24T11:01:50.808Z,27136.00
2018-06-24T11:02:50.836Z,25984.00
2018-06-24T11:03:50.886Z,25760.00
2018-06-24T11:04:50.939Z,25376.00
2018-06-24T11:05:50.972Z,24992.00
2018-06-24T11:06:51.007Z,24448.00
2018-06-24T11:07:51.068Z,24480.00
2018-06-24T11:08:51.124Z,23776.00
2018-06-24T11:09:51.151Z,22944.00
2018-06-24T11:10:51.174Z,22400.00
2018-06-24T11:11:51.216Z,22304.00
2018-06-24T11:12:51.261Z,22208.00
2018-06-24T11:13:51.312Z,21952.00
2018-06-24T11:14:51.344Z,21920.00
2018-06-24T11:15:51.388Z,21856.00
2018-06-24T11:16:51.428Z,21632.00
2018-06-24T11:17:51.472Z,21216.00
2018-06-24T11:18:51.616Z,20416.00
2018-06-24T11:19:51.556Z,19648.00
2018-06-24T11:20:51.597Z,18784.00
2018-06-24T11:21:51.663Z,18112.00
2018-06-24T11:22:51.684Z,17152.00
2018-06-24T11:23:51.732Z,16864.00
2018-06-24T11:24:51.783Z,17280.00
2018-06-24T11:25:51.815Z,18016.00
2018-06-24T11:26:51.847Z,18464.00
2018-06-24T11:27:51.890Z,18464.00
2018-06-24T11:28:51.939Z,18176.00
2018-06-24T11:29:51.975Z,17920.00
2018-06-24T11:30:52.020Z,17600.00
2018-06-24T11:31:52.055Z,17344.00
2018-06-24T11:32:52.098Z,17056.00
2018-06-24T11:33:52.147Z,16832.00
2018-06-24T11:34:52.182Z,16352.00
2018-06-24T11:35:52.222Z,16352.00
2018-06-24T11:36:52.282Z,17120.00
2018-06-24T11:37:52.305Z,18688.00
2018-06-24T11:38:52.350Z,20288.00
2018-06-24T11:39:52.392Z,21408.00
2018-06-24T11:40:52.437Z,21856.00
2018-06-24T11:41:52.474Z,22144.00
2018-06-24T11:42:52.519Z,22496.00
2018-06-24T11:43:52.561Z,22528.00
2018-06-24T11:44:52.596Z,22336.00
2018-06-24T11:45:52.637Z,22400.00
2018-06-24T11:46:52.681Z,21984.00
2018-06-24T11:47:52.745Z,22464.00
2018-06-24T11:48:52.763Z,22848.00
2018-06-24T11:49:52.809Z,22112.00
2018-06-24T11:50:52.847Z,21024.00
2018-06-24T11:51:52.887Z,21728.00
2018-06-24T11:52:52.930Z,22496.00
2018-06-24T11:53:52.970Z,22816.00
2018-06-24T11:54:53.011Z,23072.00
2018-06-24T11:55:53.052Z,24032.00
2018-06-24T11:56:53.146Z,24384.00
2018-06-24T11:57:53.136Z,24640.00
2018-06-24T11:58:53.178Z,25088.00
2018-06-24T11:59:53.222Z,25472.00
2018-06-24T12:00:53.263Z,25600.00
2018-06-24T12:01:53.377Z,25408.00
2018-06-24T12:02:53.348Z,25152.00
2018-06-24T12:03:53.396Z,24192.00
2018-06-24T12:04:53.431Z,23264.00
2018-06-24T12:05:53.474Z,22752.00
2018-06-24T12:06:53.554Z,22240.00
2018-06-24T12:07:53.556Z,22432.00
2018-06-24T12:08:53.602Z,23264.00
2018-06-24T12:09:53.728Z,24224.00